Flight Track Log - Related Links

Times and Time Zones

All times are in EDT time to prevent confusion due to time zone crossing. See the FSR411 flight status page for this flight to view local times or setup timezone preferences in your user account.

Time Position Orientation Groundspeed Altitude Reporting Facility
EDT Latitude Longitude Course Direction KTS MPH feet Rate Location/Type
Sun 06:02:56 PM 47.5164 -122.2886 150° Southeast 157 181 900  Level Seattle Center
Sun 06:03:14 PM 47.5022 -122.2767 150° Southeast 170 196 1,400 1,975 Climbing Seattle Center
Sun 06:04:15 PM 47.4536 -122.2250 144° Southeast 242 278 3,500 2,129 Climbing Seattle Center
Sun 06:04:16 PM 47.4506 -122.2203 134° Southeast 217 250 3,600 2,516 Climbing Seattle Center
Sun 06:05:17 PM 47.4319 -122.1117 104° East 274 315 6,100 2,705 Climbing Seattle Center
Sun 06:06:18 PM 47.4331 -121.9917 89° East 289 333 9,100 3,000 Climbing Seattle Center
Sun 06:07:19 PM 47.4314 -121.8608 91° East 318 366 12,200 3,049 Climbing Seattle Center
Sun 06:08:20 PM 47.4303 -121.7114 91° East 366 421 15,300 2,803 Climbing Seattle Center
Sun 06:09:21 PM 47.4314 -121.5639 89° East 400 460 17,900 2,479 Climbing Seattle Center
Sun 06:10:21 PM 47.4317 -121.3900 90° East 427 491 20,300 2,231 Climbing Seattle Center
Sun 06:11:22 PM 47.4344 -121.1586 89° East 473 544 22,400 1,918 Climbing Seattle Center
Sun 06:12:23 PM 47.4367 -120.9489 89° East 508 585 24,200 1,820 Climbing Seattle Center
Sun 06:13:24 PM 47.4383 -120.7339 89° East 524 603 26,100 1,967 Climbing Seattle Center
Sun 06:14:25 PM 47.4392 -120.5214 90° East 528 608 28,200 1,967 Climbing Seattle Center
Sun 06:15:26 PM 47.4397 -120.2983 90° East 539 620 30,100 1,835 Climbing Seattle Center
Sun 06:16:26 PM 47.4403 -120.0736 90° East 542 624 31,900 1,785 Climbing Seattle Center
Sun 06:17:27 PM 47.4403 -119.8494 90° East 543 625 33,700 1,623 Climbing Seattle Center
Sun 06:18:28 PM 47.4392 -119.6297 90° East 543 625 35,200 1,475 Climbing Seattle Center
Sun 06:19:29 PM 47.4381 -119.4081 90° East 544 626 36,700 1,328 Climbing Seattle Center
Sun 06:20:30 PM 47.4364 -119.1883 91° East 541 623 37,900 934 Climbing Seattle Center
Sun 06:21:31 PM 47.4344 -118.9669 91° East 537 618 38,600 595 Climbing Seattle Center
Sun 06:22:31 PM 47.4325 -118.7417 91° East 546 628 39,100 496 Climbing Seattle Center
Sun 06:23:32 PM 47.4294 -118.5139 91° East 553 636 39,600 738 Climbing Seattle Center
Sun 06:24:33 PM 47.4250 -118.2400 91° East 555 639 40,600 689 Climbing Seattle Center
Sun 06:25:34 PM 47.4225 -118.0178 91° East 549 632 41,000 148 Climbing Seattle Center
Sun 06:26:35 PM 47.4189 -117.7967 91° East 545 627 40,900 -197 Descending Seattle Center
Sun 06:27:36 PM 47.4161 -117.5767 91° East 542 624 40,600 148 Descending Seattle Center
Sun 06:28:37 PM 47.4117 -117.3558 92° East 543 625 41,200 246 Climbing Seattle Center
Sun 06:29:38 PM 47.4044 -117.1406 93° East 542 624 41,100 -149 Descending Seattle Center
Sun 06:30:38 PM 47.4017 -116.9242 91° East 541 623 40,900 -99 Descending Seattle Center
Sun 06:31:39 PM 47.3975 -116.7075 92° East 539 620 40,900  Level Seattle Center
Sun 06:32:40 PM 47.3864 -116.4417 93° East 543 625 40,900  Level Seattle Center
Sun 06:33:41 PM 47.3786 -116.2228 93° East 541 623 40,900  Level Seattle Center
Sun 06:34:42 PM 47.3742 -116.0019 92° East 541 623 40,900  Level Seattle Center
Sun 06:35:43 PM 47.3644 -115.7817 94° East 541 623 40,900  Level Seattle Center
Sun 06:36:44 PM 47.3586 -115.5883 92° East 541 623 40,900  Level Seattle Center
Sun 06:37:45 PM 47.3475 -115.3239 93° East 541 623 40,900  Level Seattle Center
Sun 06:38:46 PM 47.3378 -115.1053 94° East 541 623 40,900  Level Seattle Center
Sun 06:39:47 PM 47.3281 -114.8844 94° East 541 623 40,900 -49 Level Seattle Center
Sun 06:40:48 PM 47.3186 -114.6653 94° East 541 623 40,800 -298 Descending Seattle Center
Sun 06:41:48 PM 47.3083 -114.4475 94° East 541 623 40,300 -533 Descending Seattle Center
Sun 06:42:18 PM 47.3044 -114.3617 94° East 536 617 40,000 -978 Descending Salt Lake Center
Sun 06:43:20 PM 47.3122 -114.1069 87° East 528 608 38,800 -1,113 Descending Salt Lake Center
Sun 06:44:22 PM 47.3383 -113.8783 80° East 567 652 37,700 -878 Descending Salt Lake Center
Sun 06:45:23 PM 47.3625 -113.6450 81° East 579 666 37,000 -341 Descending Salt Lake Center
Sun 06:46:25 PM 47.3597 -113.4167 91° East 566 651 37,000 -48 Level Salt Lake Center
Sun 06:47:27 PM 47.3428 -113.1858 96° East 568 654 36,900 -48 Descending Salt Lake Center
Sun 06:48:29 PM 47.3256 -112.9197 95° East 569 655 36,900 49 Level Salt Lake Center
Sun 06:49:30 PM 47.3108 -112.6819 95° East 579 666 37,000 49 Climbing Salt Lake Center
Sun 06:50:32 PM 47.2944 -112.4486 96° East 579 666 37,000 387 Level Salt Lake Center
Sun 06:51:34 PM 47.2789 -112.2219 96° East 567 652 37,800 871 Climbing Salt Lake Center
Sun 06:52:36 PM 47.2639 -112.0092 96° East 536 617 38,800 829 Climbing Salt Lake Center
Sun 06:53:37 PM 47.2450 -111.7522 96° East 534 615 39,500 585 Climbing Salt Lake Center
Sun 06:54:39 PM 47.2289 -111.5361 96° East 534 615 40,000 484 Climbing Salt Lake Center
Sun 06:55:41 PM 47.2103 -111.3147 97° East 547 629 40,500 435 Climbing Salt Lake Center
Sun 06:56:43 PM 47.1939 -111.1000 96° East 539 620 40,900 244 Climbing Salt Lake Center
Sun 06:57:44 PM 47.1764 -110.8872 97° East 531 611 41,000 49 Climbing Salt Lake Center
Sun 06:58:46 PM 47.1542 -110.6253 97° East 541 623 41,000  Level Salt Lake Center
Sun 06:59:48 PM 47.1356 -110.4083 97° East 541 623 41,000  Level Salt Lake Center
Sun 07:00:50 PM 47.1158 -110.1942 98° East 532 612 41,000  Level Salt Lake Center
Sun 07:01:51 PM 47.0986 -109.9806 97° East 532 612 41,000  Level Salt Lake Center
Sun 07:02:53 PM 47.0803 -109.7678 97° East 531 611 41,000  Level Salt Lake Center
Sun 07:03:55 PM 47.0594 -109.5564 98° East 530 610 41,000  Level Salt Lake Center
Sun 07:04:56 PM 47.0378 -109.3442 98° East 529 609 41,000  Level Salt Lake Center
Sun 07:05:58 PM 47.0125 -109.0917 98° East 527 606 41,000  Level Salt Lake Center
Sun 07:07:00 PM 46.9906 -108.8942 99° East 510 587 41,000  Level Salt Lake Center
Sun 07:08:01 PM 46.9708 -108.6944 98° East 499 574 41,000  Level Salt Lake Center
Sun 07:09:03 PM 46.9506 -108.4933 98° East 498 573 41,000  Level Salt Lake Center
Sun 07:10:05 PM 46.9281 -108.2833 99° East 516 594 41,000  Level Salt Lake Center
Sun 07:12:08 PM 46.8781 -107.8242 99° East 518 596 41,000  Level Salt Lake Center
Sun 07:13:10 PM 46.8547 -107.6167 99° East 519 597 41,000  Level Salt Lake Center
Sun 07:14:11 PM 46.8314 -107.4153 100° East 513 590 41,000  Level Salt Lake Center
Sun 07:15:13 PM 46.8083 -107.2139 99° East 507 583 41,000  Level Salt Lake Center
Sun 07:16:15 PM 46.7842 -107.0106 100° East 507 583 41,000  Level Salt Lake Center
Sun 07:17:16 PM 46.7594 -106.8069 100° East 507 583 41,000  Level Salt Lake Center
Sun 07:18:18 PM 46.7342 -106.6022 100° East 508 585 41,000  Level Salt Lake Center
Sun 07:19:20 PM 46.7036 -106.3567 100° East 509 586 41,000  Level Salt Lake Center
Sun 07:20:21 PM 46.6772 -106.1536 101° East 509 586 41,000  Level Salt Lake Center
Sun 07:21:23 PM 46.6511 -105.9522 101° East 509 586 41,000  Level Salt Lake Center
Sun 07:22:24 PM 46.6253 -105.7519 101° East 509 586 41,000  Level Salt Lake Center
Sun 07:23:26 PM 46.5989 -105.5539 101° East 509 586 41,000  Level Salt Lake Center
Sun 07:24:28 PM 46.5717 -105.3486 101° East 509 586 41,000  Level Salt Lake Center
Sun 07:25:30 PM 46.5442 -105.1442 101° East 509 586 41,000  Level Salt Lake Center
Sun 07:26:31 PM 46.5156 -104.9392 101° East 512 589 41,000  Level Salt Lake Center
Sun 07:27:33 PM 46.4836 -104.7011 101° East 513 590 41,000  Level Salt Lake Center
Sun 07:28:35 PM 46.4544 -104.4981 102° East 513 590 41,000  Level Salt Lake Center
Sun 07:29:36 PM 46.4256 -104.2983 102° East 513 590 41,000  Level Salt Lake Center
Sun 07:30:38 PM 46.3975 -104.0994 101° East 512 589 41,000  Level Salt Lake Center
Sun 07:31:40 PM 46.3689 -103.9036 102° East 506 582 41,000  Level Salt Lake Center
Sun 07:32:41 PM 46.3397 -103.7067 102° East 506 582 41,000  Level Salt Lake Center
Sun 07:33:43 PM 46.3047 -103.4706 102° East 506 582 41,000  Level Salt Lake Center
Sun 07:34:45 PM 46.2753 -103.2767 102° East 505 581 41,000  Level Salt Lake Center
Sun 07:35:30 PM 46.2519 -103.1231 102° East 497 572 41,000  Level Minneapolis Center
Sun 07:36:32 PM 46.2228 -102.9250 102° East 501 577 41,000  Level Minneapolis Center
Sun 07:37:34 PM 46.1914 -102.7314 103° East 501 577 41,000  Level Minneapolis Center
Sun 07:38:37 PM 46.1603 -102.5336 103° East 502 578 41,000  Level Minneapolis Center
Sun 07:39:39 PM 46.1283 -102.3406 103° East 504 580 41,000  Level Minneapolis Center
Sun 07:40:40 PM 46.0892 -102.1061 103° East 504 580 41,000  Level Minneapolis Center
Sun 07:41:42 PM 46.0578 -101.9100 103° East 504 580 41,000  Level Minneapolis Center
Sun 07:42:44 PM 46.0225 -101.7172 105° East 504 580 41,000  Level Minneapolis Center
Sun 07:43:45 PM 45.9889 -101.5231 104° East 503 579 41,000  Level Minneapolis Center
Sun 07:44:47 PM 45.9561 -101.3278 104° East 503 579 41,000 -195 Level Minneapolis Center
Sun 07:45:48 PM 45.9236 -101.1306 103° East 503 579 40,600 -439 Descending Minneapolis Center
Sun 07:46:50 PM 45.8878 -100.9333 105° East 506 582 40,100 -484 Descending Minneapolis Center
Sun 07:47:52 PM 45.8539 -100.7369 104° East 506 582 39,600 -537 Descending Minneapolis Center
Sun 07:48:53 PM 45.8181 -100.5389 104° East 509 586 39,000 -293 Descending Minneapolis Center
Sun 07:49:55 PM 45.7733 -100.2969 105° East 518 596 39,000  Level Minneapolis Center
Sun 07:50:56 PM 45.7356 -100.0950 105° East 521 600 39,000  Level Minneapolis Center
Sun 07:51:58 PM 45.6992 -99.8931 104° East 521 600 39,000  Level Minneapolis Center
Sun 07:52:59 PM 45.6611 -99.6925 105° East 521 600 39,000  Level Minneapolis Center
Sun 07:54:01 PM 45.6233 -99.4950 105° East 520 598 39,000  Level Minneapolis Center
Sun 07:55:03 PM 45.5856 -99.2997 105° East 515 593 39,000  Level Minneapolis Center
Sun 07:56:04 PM 45.5483 -99.1067 105° East 511 588 39,000  Level Minneapolis Center
Sun 07:57:06 PM 45.5100 -98.9125 106° East 509 586 39,000  Level Minneapolis Center
Sun 07:58:07 PM 45.4714 -98.7208 106° East 507 583 39,000  Level Minneapolis Center
Sun 07:59:09 PM 45.4253 -98.4911 106° East 506 582 39,000  Level Minneapolis Center
Sun 08:00:10 PM 45.3872 -98.2981 106° East 506 582 39,000  Level Minneapolis Center
Sun 08:01:12 PM 45.3472 -98.1072 107° East 506 582 39,000  Level Minneapolis Center
Sun 08:02:13 PM 45.3111 -97.9278 106° East 507 583 39,000  Level Minneapolis Center
Sun 08:03:15 PM 45.2714 -97.7375 106° East 506 582 39,000  Level Minneapolis Center
Sun 08:04:16 PM 45.2308 -97.5483 107° East 505 581 39,000 -49 Level Minneapolis Center
Sun 08:05:18 PM 45.1842 -97.3244 106° East 500 575 38,900 -537 Descending Minneapolis Center
Sun 08:06:19 PM 45.1444 -97.1400 107° East 492 566 37,900 -927 Descending Minneapolis Center
Sun 08:07:21 PM 45.1014 -96.9464 107° East 506 582 37,000 -435 Descending Minneapolis Center
Sun 08:08:23 PM 45.0594 -96.7461 106° East 525 604 37,000  Level Minneapolis Center
Sun 08:09:24 PM 45.0144 -96.5478 108° East 528 608 37,000  Level Minneapolis Center
Sun 08:10:26 PM 44.9717 -96.3503 107° East 528 608 37,000  Level Minneapolis Center
Sun 08:11:27 PM 44.9278 -96.1553 108° East 524 603 37,000  Level Minneapolis Center
Sun 08:12:29 PM 44.8847 -95.9647 108° East 514 592 37,000  Level Minneapolis Center
Sun 08:13:30 PM 44.8411 -95.7744 108° East 510 587 37,000  Level Minneapolis Center
Sun 08:14:32 PM 44.7881 -95.5444 108° East 511 588 37,000 -48 Level Minneapolis Center
Sun 08:15:34 PM 44.7436 -95.3533 108° East 511 588 36,900 -585 Descending Minneapolis Center
Sun 08:16:35 PM 44.6994 -95.1667 108° East 506 582 35,800 -927 Descending Minneapolis Center
Sun 08:17:37 PM 44.6547 -94.9669 107° East 524 603 35,000 -390 Descending Minneapolis Center
Sun 08:18:38 PM 44.6058 -94.7681 109° East 533 613 35,000  Level Minneapolis Center
Sun 08:19:40 PM 44.5550 -94.5550 108° East 533 613 35,000  Level Minneapolis Center
Sun 08:20:41 PM 44.5075 -94.3586 109° East 533 613 35,000  Level Minneapolis Center
Sun 08:21:43 PM 44.4597 -94.1658 109° East 533 613 35,000  Level Minneapolis Center
Sun 08:22:44 PM 44.4108 -93.9742 110° East 531 611 35,000  Level Minneapolis Center
Sun 08:23:46 PM 44.3639 -93.7839 109° East 528 608 35,000 -293 Level Minneapolis Center
Sun 08:24:47 PM 44.3153 -93.5956 110° East 524 603 34,400 -878 Descending Minneapolis Center
Sun 08:25:49 PM 44.2581 -93.3675 109° East 524 603 33,200 -1,073 Descending Minneapolis Center
Sun 08:26:50 PM 44.2108 -93.1839 110° East 512 589 32,200 -976 Descending Minneapolis Center
Sun 08:27:52 PM 44.1639 -93.0014 110° East 507 583 31,200 -968 Descending Minneapolis Center
Sun 08:28:54 PM 44.1158 -92.8169 110° East 509 586 30,200 -976 Descending Minneapolis Center
Sun 08:29:55 PM 44.0678 -92.6306 110° East 513 590 29,200 -585 Descending Minneapolis Center
Sun 08:30:57 PM 44.0175 -92.4447 111° Southeast 513 590 29,000 -98 Descending Minneapolis Center
Sun 08:31:58 PM 43.9689 -92.2594 110° East 514 592 29,000  Level Minneapolis Center
Sun 08:33:00 PM 43.9081 -92.0319 110° East 523 602 29,000  Level Minneapolis Center
Sun 08:34:01 PM 43.8567 -91.8442 111° Southeast 524 603 29,000 -98 Level Minneapolis Center
Sun 08:35:03 PM 43.8092 -91.6686 110° East 522 601 28,800 -677 Descending Minneapolis Center
Sun 08:36:05 PM 43.7594 -91.4889 111° Southeast 509 586 27,600 -1,561 Descending Minneapolis Center
Sun 08:37:06 PM 43.7114 -91.3122 111° Southeast 500 575 25,600 -2,098 Descending Minneapolis Center
Sun 08:38:08 PM 43.6536 -91.1058 111° Southeast 487 560 23,300 -1,854 Descending Minneapolis Center
Sun 08:39:09 PM 43.6064 -90.9414 112° Southeast 470 541 21,800 -1,688 Descending Minneapolis Center
Sun 08:39:44 PM 43.5817 -90.8497 110° East 459 528 20,600 -1,979 Descending Chicago Center
Sun 08:40:46 PM 43.5372 -90.6931 111° Southeast 446 513 18,600 -1,694 Descending Chicago Center
Sun 08:41:48 PM 43.4944 -90.5442 112° Southeast 427 491 17,100 -1,584 Descending Chicago Center
Sun 08:42:51 PM 43.4511 -90.3933 112° Southeast 425 489 15,300 -1,824 Descending Chicago Center
Sun 08:43:53 PM 43.4014 -90.2231 112° Southeast 415 478 13,300 -1,839 Descending Chicago Center
Sun 08:44:55 PM 43.3464 -90.1017 122° Southeast 383 441 11,500 -1,694 Descending Chicago Center
Sun 08:45:57 PM 43.2942 -89.9861 122° Southeast 367 422 9,800 -1,597 Descending Chicago Center
Sun 08:46:59 PM 43.2517 -89.8881 121° Southeast 319 367 8,200 -1,680 Descending Chicago Center
Sun 08:48:02 PM 43.2150 -89.7997 120° Southeast 283 326 6,300 -1,968 Descending Chicago Center
Sun 08:49:04 PM 43.1731 -89.7008 120° Southeast 261 300 4,100 -1,355 Descending Chicago Center
Sun 08:50:06 PM 43.1392 -89.6228 121° Southeast 250 288 3,500 -290 Descending Chicago Center
Sun 08:51:08 PM 43.1036 -89.5478 123° Southeast 242 278 3,500 -48 Level Chicago Center
Sun 08:52:11 PM 43.0725 -89.4847 124° Southeast 223 257 3,400 -384 Descending Chicago Center
Sun 08:53:13 PM 43.0642 -89.4250 101° East 191 220 2,700 -726 Descending Chicago Center
Sun 08:54:15 PM 43.0656 -89.3628 88° East 158 182 1,900 -581 Descending Chicago Center
Sun 08:55:17 PM 43.0964 -89.3450 23° Northeast 137 158 1,500 -336 Descending Chicago Center
Sun 08:56:20 PM 43.1267 -89.3383 North 131 151 1,200 -286 Descending Chicago Center

Login

Don't have an account? Register now (free) for customized features, flight alerts, and more!